createdAt,value
2019-03-25T00:01:51.026Z,20.17
2019-03-25T00:04:26.049Z,24.18
2019-03-25T00:07:02.261Z,21.23
2019-03-25T00:09:37.594Z,19.33
2019-03-25T00:12:12.709Z,18.23
2019-03-25T00:14:48.050Z,20.00
2019-03-25T00:17:23.187Z,21.35
2019-03-25T00:19:58.376Z,17.27
2019-03-25T00:22:33.581Z,20.00
2019-03-25T00:25:10.036Z,20.30
2019-03-25T00:27:45.214Z,21.30
2019-03-25T00:30:20.231Z,18.80
2019-03-25T00:32:55.924Z,17.77
2019-03-25T00:35:31.057Z,12.20
2019-03-25T00:38:06.397Z,11.85
2019-03-25T00:40:41.708Z,10.67
2019-03-25T00:43:16.245Z,10.28
2019-03-25T00:45:51.441Z,9.70
2019-03-25T00:48:26.774Z,9.33
2019-03-25T00:51:20.806Z,9.23
2019-03-25T00:53:56.912Z,8.40
2019-03-25T00:56:32.191Z,8.63
2019-03-25T00:59:07.162Z,8.07
2019-03-25T01:01:43.239Z,8.50
2019-03-25T01:04:18.454Z,7.50
2019-03-25T01:06:53.428Z,8.07
2019-03-25T01:09:28.748Z,8.17
2019-03-25T01:12:04.138Z,7.58
2019-03-25T01:14:38.991Z,6.67
2019-03-25T01:17:14.293Z,6.50
2019-03-25T01:19:49.467Z,6.97
2019-03-25T01:22:24.345Z,6.77
2019-03-25T01:25:02.134Z,6.37
2019-03-25T01:27:36.434Z,6.03
2019-03-25T01:30:11.950Z,5.47
2019-03-25T01:32:46.957Z,5.37
2019-03-25T01:35:22.481Z,5.13
2019-03-25T01:37:58.049Z,5.13
2019-03-25T01:40:33.322Z,6.33
2019-03-25T01:43:09.027Z,6.80
2019-03-25T01:45:44.170Z,7.47
2019-03-25T01:48:19.275Z,6.73
2019-03-25T01:50:54.649Z,6.50
2019-03-25T01:53:31.242Z,6.60
2019-03-25T01:56:06.657Z,8.67
2019-03-25T02:01:12.455Z,11.07
2019-03-25T02:03:47.756Z,12.93
2019-03-25T02:06:22.825Z,13.93
2019-03-25T02:08:58.203Z,13.20
2019-03-25T02:11:33.672Z,15.00
2019-03-25T02:14:09.185Z,14.67
2019-03-25T02:16:43.968Z,13.77
2019-03-25T02:19:19.194Z,16.47
2019-03-25T02:21:54.220Z,17.67
2019-03-25T02:24:29.558Z,18.23
2019-03-25T02:27:04.826Z,16.27
2019-03-25T02:29:41.026Z,16.60
2019-03-25T02:32:16.542Z,14.77
2019-03-25T02:34:51.925Z,13.80
2019-03-25T02:37:27.286Z,15.33
2019-03-25T02:40:02.227Z,16.60
2019-03-25T02:42:37.883Z,15.57
2019-03-25T02:45:13.576Z,12.70
2019-03-25T02:47:49.047Z,13.50
2019-03-25T02:50:24.334Z,12.80
2019-03-25T02:52:59.583Z,11.93
2019-03-25T02:55:41.262Z,9.43
2019-03-25T02:58:13.258Z,12.77
2019-03-25T03:00:47.977Z,11.70
2019-03-25T03:03:23.126Z,13.60
2019-03-25T03:05:58.019Z,13.23
2019-03-25T03:08:33.646Z,13.37
2019-03-25T03:11:08.726Z,14.97
2019-03-25T03:13:45.984Z,15.73
2019-03-25T03:16:21.092Z,17.53
2019-03-25T03:18:56.563Z,17.53
2019-03-25T03:21:32.171Z,17.27
2019-03-25T03:24:07.446Z,14.80
2019-03-25T03:26:43.201Z,13.20
2019-03-25T03:29:18.134Z,15.07
2019-03-25T03:31:53.009Z,15.67
2019-03-25T03:34:28.594Z,14.60
2019-03-25T03:37:04.077Z,15.53
2019-03-25T03:39:40.037Z,13.10
2019-03-25T03:42:15.251Z,15.93
2019-03-25T03:44:50.816Z,13.13
2019-03-25T03:47:26.803Z,12.13
2019-03-25T03:50:01.721Z,11.83
2019-03-25T03:52:36.991Z,10.90
2019-03-25T03:55:12.892Z,10.13
2019-03-25T03:57:48.173Z,10.80
2019-03-25T04:00:33.407Z,10.17
2019-03-25T04:03:08.664Z,10.03
2019-03-25T04:05:44.102Z,9.40
2019-03-25T04:08:25.487Z,9.70
2019-03-25T04:11:01.035Z,9.70
2019-03-25T04:13:36.561Z,9.80
2019-03-25T04:16:12.033Z,8.87
2019-03-25T04:18:47.284Z,9.93
2019-03-25T04:21:23.318Z,9.50
2019-03-25T04:24:00.941Z,8.20
2019-03-25T04:26:36.617Z,8.10
2019-03-25T04:29:11.790Z,8.23
2019-03-25T04:31:46.958Z,8.18
2019-03-25T04:34:22.458Z,8.43
2019-03-25T04:36:58.051Z,8.30
2019-03-25T04:39:33.541Z,8.27
2019-03-25T04:42:08.887Z,7.60
2019-03-25T04:44:44.312Z,7.70
2019-03-25T04:47:19.153Z,7.33
2019-03-25T04:49:54.607Z,7.43
2019-03-25T04:52:30.132Z,7.27
2019-03-25T04:55:05.254Z,6.60
2019-03-25T04:57:40.970Z,6.67
2019-03-25T05:00:16.823Z,6.77
2019-03-25T05:02:51.861Z,7.47
2019-03-25T05:05:27.360Z,7.63
2019-03-25T05:08:02.719Z,7.20
2019-03-25T05:10:38.046Z,8.03
2019-03-25T05:13:13.348Z,6.63
2019-03-25T05:15:48.681Z,6.63
2019-03-25T05:18:24.398Z,6.83
2019-03-25T05:20:59.295Z,6.23
2019-03-25T05:23:34.900Z,6.80
2019-03-25T05:26:10.636Z,7.67
2019-03-25T05:28:45.818Z,7.73
2019-03-25T05:31:21.193Z,7.30
2019-03-25T05:33:56.517Z,8.03
2019-03-25T05:36:31.895Z,7.80
2019-03-25T05:39:10.363Z,7.53
2019-03-25T05:41:45.660Z,7.53
2019-03-25T05:44:21.664Z,7.60
2019-03-25T05:46:56.960Z,7.50
2019-03-25T05:49:32.427Z,8.07
2019-03-25T05:52:07.763Z,7.47
2019-03-25T05:54:43.021Z,8.90
2019-03-25T05:57:18.575Z,8.10
2019-03-25T05:59:54.378Z,8.67
2019-03-25T06:02:29.442Z,8.57
2019-03-25T06:05:05.413Z,8.73
2019-03-25T06:07:40.705Z,7.93
2019-03-25T06:10:15.861Z,6.83
2019-03-25T06:12:51.704Z,6.73
2019-03-25T06:15:27.193Z,7.60
2019-03-25T06:18:02.004Z,7.25
2019-03-25T06:20:37.373Z,7.42
2019-03-25T06:23:12.578Z,7.73
2019-03-25T06:25:47.619Z,6.70
2019-03-25T06:28:23.515Z,6.80
2019-03-25T06:30:58.531Z,6.03
2019-03-25T06:33:34.099Z,5.90
2019-03-25T06:36:08.692Z,6.27
2019-03-25T06:38:43.978Z,6.08
2019-03-25T06:41:19.594Z,6.27
2019-03-25T06:43:54.471Z,6.63
2019-03-25T06:46:29.664Z,7.53
2019-03-25T06:49:05.197Z,8.20
2019-03-25T06:51:40.690Z,7.83
2019-03-25T06:54:16.245Z,8.00
2019-03-25T06:56:51.878Z,7.90
2019-03-25T06:59:27.126Z,7.72
2019-03-25T07:02:02.067Z,6.80
2019-03-25T07:04:37.892Z,5.80
2019-03-25T07:07:13.136Z,5.25
2019-03-25T07:09:48.712Z,5.35
2019-03-25T07:12:24.027Z,5.15
2019-03-25T07:14:59.780Z,5.37
2019-03-25T07:17:34.900Z,5.78
2019-03-25T07:20:10.224Z,5.47
2019-03-25T07:22:45.938Z,4.83
2019-03-25T07:25:21.025Z,5.40
2019-03-25T07:27:55.459Z,5.20
2019-03-25T07:30:48.377Z,5.28
2019-03-25T07:33:23.822Z,5.00
2019-03-25T07:35:59.151Z,4.75
2019-03-25T07:38:34.260Z,4.40
2019-03-25T07:41:09.436Z,4.73
2019-03-25T07:43:44.628Z,4.90
2019-03-25T07:46:19.926Z,5.07
2019-03-25T07:49:00.705Z,4.55
2019-03-25T07:51:37.452Z,4.67
2019-03-25T07:54:12.787Z,5.03
2019-03-25T07:56:47.835Z,4.27
2019-03-25T07:59:23.139Z,4.40
2019-03-25T08:01:58.372Z,4.10
2019-03-25T08:04:33.465Z,4.37
2019-03-25T08:07:09.350Z,4.12
2019-03-25T08:09:44.537Z,4.10
2019-03-25T08:12:19.643Z,4.55
2019-03-25T08:14:55.009Z,4.45
2019-03-25T08:17:30.639Z,4.73
2019-03-25T08:20:05.681Z,4.33
2019-03-25T08:22:40.768Z,5.08
2019-03-25T08:25:16.338Z,4.90
2019-03-25T08:27:59.805Z,4.65
2019-03-25T08:30:28.125Z,4.37
2019-03-25T08:33:04.590Z,4.37
2019-03-25T08:35:39.750Z,4.05
2019-03-25T08:38:14.802Z,3.90
2019-03-25T08:40:50.172Z,3.67
2019-03-25T08:43:25.535Z,4.22
2019-03-25T08:46:01.093Z,3.70
2019-03-25T08:48:35.687Z,3.52
2019-03-25T08:51:11.073Z,4.28
2019-03-25T08:53:46.448Z,4.65
2019-03-25T08:56:21.524Z,4.60
2019-03-25T08:58:57.303Z,4.23
2019-03-25T09:01:32.905Z,4.22
2019-03-25T09:04:07.741Z,3.95
2019-03-25T09:06:42.982Z,3.95
2019-03-25T09:09:18.177Z,4.15
2019-03-25T09:11:53.897Z,4.30
2019-03-25T09:14:29.279Z,3.83
2019-03-25T09:17:04.929Z,4.00
2019-03-25T09:19:39.967Z,4.00
2019-03-25T09:22:15.028Z,4.70
2019-03-25T09:24:50.696Z,4.43
2019-03-25T09:27:25.863Z,3.75
2019-03-25T09:30:03.338Z,4.20
2019-03-25T09:32:37.443Z,4.50
2019-03-25T09:35:12.758Z,4.65
2019-03-25T09:37:47.883Z,4.60
2019-03-25T09:40:22.844Z,4.65
2019-03-25T09:42:58.177Z,4.90
2019-03-25T09:45:34.314Z,5.33
2019-03-25T09:48:09.744Z,4.70
2019-03-25T09:50:44.512Z,4.55
2019-03-25T09:53:19.613Z,4.57
2019-03-25T09:55:55.086Z,4.08
2019-03-25T09:58:36.338Z,5.15
2019-03-25T10:01:07.226Z,5.40
2019-03-25T10:03:42.352Z,4.92
2019-03-25T10:06:17.757Z,3.93
2019-03-25T10:08:52.924Z,4.80
2019-03-25T10:11:30.741Z,3.92
2019-03-25T10:14:06.585Z,3.75
2019-03-25T10:16:41.835Z,3.42
2019-03-25T10:19:16.916Z,3.97
2019-03-25T10:21:52.057Z,4.30
2019-03-25T10:24:28.008Z,4.33
2019-03-25T10:27:03.019Z,3.92
2019-03-25T10:29:38.033Z,3.90
2019-03-25T10:32:15.348Z,4.47
2019-03-25T10:34:50.396Z,4.60
2019-03-25T10:37:25.991Z,4.17
2019-03-25T10:40:01.141Z,3.98
2019-03-25T10:42:35.987Z,4.50
2019-03-25T10:45:11.028Z,3.70
2019-03-25T10:47:46.669Z,3.75
2019-03-25T10:50:21.816Z,4.00
2019-03-25T10:52:56.568Z,3.42
2019-03-25T10:55:31.726Z,3.80
2019-03-25T10:58:07.043Z,3.67
2019-03-25T11:00:42.546Z,3.37
2019-03-25T11:03:17.760Z,4.70
2019-03-25T11:05:52.977Z,6.03
2019-03-25T11:08:28.360Z,4.73
2019-03-25T11:11:03.592Z,4.10
2019-03-25T11:13:39.170Z,4.33
2019-03-25T11:16:14.134Z,4.43
2019-03-25T11:18:49.809Z,4.67
2019-03-25T11:21:25.203Z,5.70
2019-03-25T11:24:00.274Z,5.93
2019-03-25T11:26:35.401Z,5.70
2019-03-25T11:29:10.926Z,6.58
2019-03-25T11:31:46.302Z,6.40
2019-03-25T11:34:21.718Z,5.33
2019-03-25T11:36:56.938Z,5.20
2019-03-25T11:39:32.518Z,4.60
2019-03-25T11:42:07.053Z,4.70
2019-03-25T11:44:41.971Z,3.80
2019-03-25T11:47:17.449Z,3.52
2019-03-25T11:49:52.983Z,3.55
2019-03-25T11:52:28.018Z,3.98
2019-03-25T11:55:02.734Z,3.70
2019-03-25T11:57:38.061Z,3.98
2019-03-25T12:00:14.271Z,4.13
2019-03-25T12:02:49.312Z,4.05
2019-03-25T12:05:24.306Z,4.67
2019-03-25T12:08:00.915Z,4.53
2019-03-25T12:10:36.003Z,5.10
2019-03-25T12:13:11.259Z,5.40
2019-03-25T12:15:46.638Z,6.63
2019-03-25T12:18:21.684Z,6.15
2019-03-25T12:20:57.910Z,4.50
2019-03-25T12:23:33.607Z,4.12
2019-03-25T12:26:08.414Z,4.37
2019-03-25T12:28:43.708Z,3.83
2019-03-25T12:31:18.987Z,3.90
2019-03-25T12:33:53.849Z,3.13
2019-03-25T12:36:29.047Z,3.30
2019-03-25T12:39:04.344Z,2.93
2019-03-25T12:41:39.121Z,3.15
2019-03-25T12:44:15.048Z,3.50
2019-03-25T12:46:50.539Z,3.50
2019-03-25T12:49:24.999Z,3.60
2019-03-25T12:52:00.267Z,3.40
2019-03-25T12:54:35.457Z,3.50
2019-03-25T12:57:10.389Z,3.13
2019-03-25T12:59:45.710Z,3.10
2019-03-25T13:02:20.546Z,3.10
2019-03-25T13:04:56.412Z,2.95
2019-03-25T13:07:31.777Z,2.40
2019-03-25T13:10:06.837Z,2.37
2019-03-25T13:12:42.238Z,2.60
2019-03-25T13:15:17.321Z,2.80
2019-03-25T13:18:09.594Z,3.20
2019-03-25T13:20:44.893Z,2.80
2019-03-25T13:23:19.889Z,2.70
2019-03-25T13:25:56.185Z,2.70
2019-03-25T13:28:31.409Z,3.70
2019-03-25T13:31:06.232Z,4.30
2019-03-25T13:33:41.392Z,3.40
2019-03-25T13:36:16.589Z,3.00
2019-03-25T13:38:52.265Z,3.03
2019-03-25T13:41:27.190Z,3.40
2019-03-25T13:44:35.800Z,4.60
2019-03-25T13:47:10.953Z,6.57
2019-03-25T13:49:47.070Z,6.73
2019-03-25T13:52:22.930Z,6.90
2019-03-25T13:54:57.897Z,5.30
2019-03-25T13:57:32.829Z,5.05
2019-03-25T14:00:08.936Z,5.10
2019-03-25T14:02:44.264Z,5.17
2019-03-25T14:05:19.599Z,5.37
2019-03-25T14:07:54.726Z,5.17
2019-03-25T14:10:29.418Z,6.17
2019-03-25T14:13:05.049Z,5.67
2019-03-25T14:15:40.180Z,5.43
2019-03-25T14:18:15.903Z,3.90
2019-03-25T14:20:51.738Z,4.17
2019-03-25T14:23:26.802Z,4.50
2019-03-25T14:26:02.087Z,4.83
2019-03-25T14:28:37.400Z,5.47
2019-03-25T14:31:12.350Z,5.20
2019-03-25T14:33:47.303Z,4.60
2019-03-25T14:36:22.393Z,4.50
2019-03-25T14:38:57.497Z,4.70
2019-03-25T14:41:32.803Z,4.03
2019-03-25T14:44:08.777Z,4.30
2019-03-25T14:46:43.684Z,4.50
2019-03-25T14:49:19.111Z,4.53
2019-03-25T14:51:53.934Z,4.87
2019-03-25T14:54:29.282Z,4.83
2019-03-25T14:57:05.017Z,4.40
2019-03-25T14:59:40.857Z,4.43
2019-03-25T15:02:15.581Z,4.10
2019-03-25T15:04:51.101Z,4.20
2019-03-25T15:07:26.280Z,5.17
2019-03-25T15:12:45.409Z,4.00
2019-03-25T15:15:21.104Z,5.37
2019-03-25T15:17:55.841Z,5.53
2019-03-25T15:20:31.191Z,4.77
2019-03-25T15:23:06.813Z,4.27
2019-03-25T15:25:41.684Z,4.00
2019-03-25T15:28:16.706Z,4.07
2019-03-25T15:30:52.764Z,4.03
2019-03-25T15:33:28.675Z,4.57
2019-03-25T15:36:04.543Z,4.17
2019-03-25T15:38:39.595Z,4.43
2019-03-25T15:41:15.347Z,5.03
2019-03-25T15:43:50.025Z,4.80
2019-03-25T15:46:25.208Z,4.50
2019-03-25T15:49:18.874Z,4.37
2019-03-25T15:51:53.648Z,4.03
2019-03-25T15:54:28.746Z,4.17
2019-03-25T15:57:03.400Z,4.70
2019-03-25T15:59:38.782Z,4.73
2019-03-25T16:02:13.955Z,4.93
2019-03-25T16:04:49.488Z,4.53
2019-03-25T16:07:24.385Z,4.40
2019-03-25T16:09:59.443Z,4.50
2019-03-25T16:12:34.810Z,4.90
2019-03-25T16:15:09.863Z,4.47
2019-03-25T16:17:45.849Z,4.83
2019-03-25T16:20:20.946Z,5.07
2019-03-25T16:22:55.894Z,5.03
2019-03-25T16:25:34.165Z,5.70
2019-03-25T16:28:09.021Z,4.53
2019-03-25T16:30:43.782Z,5.30
2019-03-25T16:33:19.163Z,5.20
2019-03-25T16:35:53.753Z,4.73
2019-03-25T16:38:28.571Z,4.87
2019-03-25T16:41:04.391Z,5.57
2019-03-25T16:43:39.555Z,6.07
2019-03-25T16:46:15.649Z,7.60
2019-03-25T16:48:50.476Z,6.30
2019-03-25T16:51:25.791Z,6.90
2019-03-25T16:54:00.627Z,6.50
2019-03-25T16:56:36.114Z,6.00
2019-03-25T16:59:11.306Z,5.50
2019-03-25T17:01:46.490Z,5.83
2019-03-25T17:04:21.896Z,6.27
2019-03-25T17:06:57.119Z,6.27
2019-03-25T17:09:32.456Z,7.20
2019-03-25T17:12:07.831Z,6.63
2019-03-25T17:14:43.428Z,6.60
2019-03-25T17:17:18.711Z,5.50
2019-03-25T17:19:53.337Z,5.23
2019-03-25T17:22:28.354Z,5.73
2019-03-25T17:25:03.674Z,5.73
2019-03-25T17:27:39.149Z,5.23
2019-03-25T17:30:15.952Z,5.37
2019-03-25T17:32:50.968Z,5.10
2019-03-25T17:35:26.688Z,6.13
2019-03-25T17:38:02.951Z,5.87
2019-03-25T17:40:37.950Z,5.70
2019-03-25T17:43:13.266Z,6.10
2019-03-25T17:45:48.640Z,5.77
2019-03-25T17:48:23.774Z,6.03
2019-03-25T17:50:58.869Z,5.20
2019-03-25T17:53:34.075Z,4.93
2019-03-25T17:56:09.773Z,5.00
2019-03-25T17:58:44.943Z,5.47
2019-03-25T18:01:31.767Z,5.60
2019-03-25T18:03:59.801Z,5.43
2019-03-25T18:06:37.160Z,5.87
2019-03-25T18:09:16.017Z,5.97
2019-03-25T18:11:51.192Z,5.97
2019-03-25T18:14:26.883Z,5.93
2019-03-25T18:17:01.951Z,6.50
2019-03-25T18:19:37.539Z,5.37
2019-03-25T18:22:13.146Z,6.17
2019-03-25T18:24:49.075Z,6.73
2019-03-25T18:27:24.481Z,7.03
2019-03-25T18:29:59.726Z,6.90
2019-03-25T18:32:34.987Z,7.17
2019-03-25T18:35:10.075Z,6.67
2019-03-25T18:37:44.866Z,6.90
2019-03-25T18:40:20.518Z,6.50
2019-03-25T18:42:55.585Z,6.33
2019-03-25T18:45:29.927Z,8.00
2019-03-25T18:48:05.330Z,8.43
2019-03-25T18:50:40.228Z,7.17
2019-03-25T18:53:15.476Z,6.63
2019-03-25T18:55:51.034Z,7.23
2019-03-25T18:58:26.190Z,6.80
2019-03-25T19:01:01.568Z,6.47
2019-03-25T19:03:36.733Z,5.77
2019-03-25T19:06:11.947Z,6.87
2019-03-25T19:08:48.630Z,7.57
2019-03-25T19:11:31.040Z,6.37
2019-03-25T19:13:59.781Z,6.77
2019-03-25T19:16:34.918Z,7.43
2019-03-25T19:19:10.104Z,6.10
2019-03-25T19:21:45.303Z,6.93
2019-03-25T19:24:20.323Z,6.80
2019-03-25T19:26:55.497Z,6.13
2019-03-25T19:29:31.226Z,6.63
2019-03-25T19:32:07.153Z,6.70
2019-03-25T19:34:42.381Z,6.40
2019-03-25T19:37:17.295Z,6.37
2019-03-25T19:39:52.615Z,6.43
2019-03-25T19:42:27.908Z,6.57
2019-03-25T19:45:03.730Z,5.83
2019-03-25T19:47:39.056Z,6.83
2019-03-25T19:50:14.112Z,6.73
2019-03-25T19:52:49.130Z,7.00
2019-03-25T19:55:24.787Z,6.23
2019-03-25T19:57:59.765Z,6.53
2019-03-25T20:00:44.595Z,6.93
2019-03-25T20:03:19.602Z,6.80
2019-03-25T20:05:54.592Z,6.07
2019-03-25T20:08:29.750Z,6.80
2019-03-25T20:11:05.430Z,6.30
2019-03-25T20:13:40.497Z,6.33
2019-03-25T20:16:15.775Z,6.23
2019-03-25T20:18:50.162Z,6.40
2019-03-25T20:21:25.176Z,6.70
2019-03-25T20:24:00.259Z,7.07
2019-03-25T20:26:34.988Z,6.40
2019-03-25T20:29:10.093Z,6.50
2019-03-25T20:31:45.372Z,6.10
2019-03-25T20:34:20.625Z,6.17
2019-03-25T20:36:55.799Z,6.13
2019-03-25T20:39:31.360Z,6.43
2019-03-25T20:42:06.155Z,6.90
2019-03-25T20:44:41.565Z,6.63
2019-03-25T20:47:16.748Z,6.97
2019-03-25T20:49:52.096Z,7.20
2019-03-25T20:52:27.245Z,7.50
2019-03-25T20:55:02.668Z,7.37
2019-03-25T20:57:40.497Z,7.73
2019-03-25T21:00:14.587Z,7.03
2019-03-25T21:02:49.843Z,7.37
2019-03-25T21:05:25.077Z,7.57
2019-03-25T21:08:00.628Z,7.37
2019-03-25T21:10:35.961Z,8.73
2019-03-25T21:13:11.898Z,9.03
2019-03-25T21:15:46.957Z,8.47
2019-03-25T21:18:21.573Z,9.23
2019-03-25T21:20:57.119Z,9.47
2019-03-25T21:23:32.302Z,10.93
2019-03-25T21:26:07.513Z,12.20
2019-03-25T21:28:42.563Z,9.93
2019-03-25T21:31:18.723Z,8.57
2019-03-25T21:33:53.766Z,9.50
2019-03-25T21:36:29.311Z,10.03
2019-03-25T21:39:05.100Z,9.50
2019-03-25T21:41:40.552Z,8.60
2019-03-25T21:44:15.579Z,9.00
2019-03-25T21:46:50.645Z,8.53
2019-03-25T21:49:25.761Z,8.57
2019-03-25T21:52:01.032Z,9.23
2019-03-25T21:54:36.424Z,8.80
2019-03-25T21:57:11.963Z,7.83
2019-03-25T21:59:47.730Z,8.13
2019-03-25T22:02:23.172Z,8.63
2019-03-25T22:04:58.307Z,8.13
2019-03-25T22:07:33.380Z,8.17
2019-03-25T22:10:08.819Z,8.23
2019-03-25T22:12:44.290Z,7.90
2019-03-25T22:15:19.531Z,8.37
2019-03-25T22:17:54.924Z,8.73
2019-03-25T22:20:30.836Z,8.13
2019-03-25T22:23:06.601Z,8.50
2019-03-25T22:25:41.533Z,8.90
2019-03-25T22:28:16.707Z,9.27
2019-03-25T22:30:51.566Z,8.67
2019-03-25T22:33:26.847Z,9.03
2019-03-25T22:36:01.912Z,9.53
2019-03-25T22:38:37.015Z,9.20
2019-03-25T22:41:12.280Z,9.57
2019-03-25T22:43:47.179Z,9.03
2019-03-25T22:46:22.656Z,9.23
2019-03-25T22:48:57.657Z,9.00
2019-03-25T22:51:33.314Z,8.20
2019-03-25T22:54:08.499Z,8.27
2019-03-25T22:56:43.760Z,8.23
2019-03-25T22:59:18.457Z,8.10
2019-03-25T23:01:54.437Z,7.70
2019-03-25T23:04:30.127Z,7.63
2019-03-25T23:07:05.193Z,8.47
2019-03-25T23:09:40.347Z,7.97
2019-03-25T23:12:15.198Z,7.90
2019-03-25T23:14:50.072Z,7.83
2019-03-25T23:17:25.486Z,7.17
2019-03-25T23:20:00.921Z,8.00
2019-03-25T23:22:36.583Z,7.37
2019-03-25T23:25:11.141Z,7.30
2019-03-25T23:27:46.750Z,7.40
2019-03-25T23:30:22.105Z,6.93
2019-03-25T23:32:56.944Z,7.47
2019-03-25T23:35:32.762Z,7.03
2019-03-25T23:38:08.206Z,7.30
2019-03-25T23:40:43.344Z,6.83
2019-03-25T23:43:18.679Z,6.80
2019-03-25T23:45:53.555Z,7.33
2019-03-25T23:48:29.212Z,7.17
2019-03-25T23:51:04.322Z,7.20
2019-03-25T23:53:39.301Z,8.03
2019-03-25T23:56:14.840Z,7.80
2019-03-25T23:58:50.300Z,8.13
